createdAt,value
2023-02-08T00:02:58.543Z,71.60
2023-02-08T00:06:01.601Z,72.50
2023-02-08T00:09:07.115Z,72.80
2023-02-08T00:12:10.210Z,71.60
2023-02-08T00:15:13.537Z,71.60
2023-02-08T00:18:16.545Z,71.60
2023-02-08T00:21:20.727Z,71.50
2023-02-08T00:24:25.135Z,71.40
2023-02-08T00:27:28.322Z,71.40
2023-02-08T00:30:31.371Z,71.40
2023-02-08T00:33:34.829Z,71.30
2023-02-08T00:36:37.801Z,71.30
2023-02-08T00:39:42.126Z,72.00
2023-02-08T00:42:45.351Z,71.20
2023-02-08T00:45:48.450Z,71.10
2023-02-08T00:48:51.534Z,71.00
2023-02-08T00:51:54.577Z,71.90
2023-02-08T00:54:59.059Z,70.50
2023-02-08T00:58:02.113Z,70.50
2023-02-08T01:01:06.972Z,71.10
2023-02-08T01:04:10.442Z,71.00
2023-02-08T01:07:13.647Z,71.30
2023-02-08T01:10:22.841Z,70.60
2023-02-08T01:13:25.862Z,71.10
2023-02-08T01:16:33.270Z,70.60
2023-02-08T01:19:36.388Z,71.10
2023-02-08T01:22:39.369Z,71.10
2023-02-08T01:25:45.782Z,71.20
2023-02-08T01:28:49.499Z,72.00
2023-02-08T01:31:52.821Z,71.70
2023-02-08T01:34:55.920Z,71.20
2023-02-08T01:37:58.882Z,70.80
2023-02-08T01:41:04.281Z,71.30
2023-02-08T01:44:48.066Z,72.00
2023-02-08T01:48:00.304Z,70.80
2023-02-08T01:51:09.258Z,72.40
2023-02-08T01:54:14.137Z,72.30
2023-02-08T01:57:17.949Z,71.10
2023-02-08T02:00:23.209Z,70.80
2023-02-08T02:03:27.880Z,71.10
2023-02-08T02:06:36.670Z,71.00
2023-02-08T02:09:45.960Z,72.10
2023-02-08T02:12:51.445Z,71.10
2023-02-08T02:15:55.913Z,71.00
2023-02-08T02:19:00.384Z,70.00
2023-02-08T02:22:25.147Z,70.40
2023-02-08T02:26:10.128Z,71.00
2023-02-08T02:30:19.852Z,70.90
2023-02-08T02:33:59.333Z,69.70
2023-02-08T02:37:18.243Z,70.80
2023-02-08T02:40:35.790Z,70.90
2023-02-08T02:43:47.282Z,70.80
2023-02-08T02:47:01.193Z,70.50
2023-02-08T02:50:17.602Z,69.80
2023-02-08T02:53:27.960Z,71.00
2023-02-08T02:56:39.294Z,71.30
2023-02-08T02:59:45.236Z,71.00
2023-02-08T03:02:50.834Z,71.10
2023-02-08T03:06:02.246Z,70.40
2023-02-08T03:09:36.153Z,70.50
2023-02-08T03:12:55.954Z,71.70
2023-02-08T03:16:15.198Z,71.10
2023-02-08T03:19:28.752Z,70.30
2023-02-08T03:25:53.457Z,69.80
2023-02-08T03:32:23.165Z,70.80
2023-02-08T03:38:44.006Z,69.80
2023-02-08T03:41:52.919Z,71.60
2023-02-08T03:45:01.639Z,70.80
2023-02-08T03:48:09.842Z,73.50
2023-02-08T03:54:31.298Z,70.70
2023-02-08T03:57:39.623Z,71.30
2023-02-08T04:00:50.974Z,70.90
2023-02-08T04:03:56.308Z,71.40
2023-02-08T04:06:59.610Z,71.50
2023-02-08T04:10:04.203Z,71.50
2023-02-08T04:16:12.588Z,69.60
2023-02-08T04:19:15.761Z,71.40
2023-02-08T04:22:18.836Z,71.40
2023-02-08T04:25:23.317Z,71.90
2023-02-08T04:28:26.294Z,71.40
2023-02-08T04:31:29.564Z,71.40
2023-02-08T04:34:33.118Z,70.90
2023-02-08T04:40:41.514Z,70.90
2023-02-08T04:43:44.780Z,70.90
2023-02-08T04:46:47.864Z,71.30
2023-02-08T04:49:53.191Z,71.30
2023-02-08T04:52:57.453Z,71.20
2023-02-08T04:56:02.022Z,71.20
2023-02-08T04:59:05.308Z,72.20
2023-02-08T05:02:08.365Z,71.00
2023-02-08T05:05:11.531Z,71.20
2023-02-08T05:08:14.638Z,72.10
2023-02-08T05:11:22.849Z,70.90
2023-02-08T05:14:26.153Z,70.50
2023-02-08T05:17:29.176Z,71.60
2023-02-08T05:20:35.702Z,71.00
2023-02-08T05:23:39.501Z,70.90
2023-02-08T05:26:43.957Z,71.00
2023-02-08T05:29:47.062Z,71.00
2023-02-08T05:32:50.033Z,71.10
2023-02-08T05:35:53.037Z,70.80
2023-02-08T05:38:56.092Z,71.20
2023-02-08T05:42:00.485Z,71.30
2023-02-08T05:45:04.233Z,71.10
2023-02-08T05:48:07.390Z,71.30
2023-02-08T05:51:10.682Z,71.40
2023-02-08T05:54:13.681Z,71.00
2023-02-08T05:57:18.032Z,71.40
2023-02-08T06:00:21.835Z,71.30
2023-02-08T06:03:25.399Z,71.40
2023-02-08T06:06:28.548Z,71.60
2023-02-08T06:09:32.118Z,72.40
2023-02-08T06:12:37.050Z,71.40
2023-02-08T06:15:40.351Z,71.80
2023-02-08T06:18:43.998Z,72.50
2023-02-08T06:21:47.080Z,72.20
2023-02-08T06:24:50.098Z,72.20
2023-02-08T06:27:56.508Z,72.20
2023-02-08T06:31:00.467Z,72.00
2023-02-08T06:34:03.802Z,71.90
2023-02-08T06:37:07.068Z,70.70
2023-02-08T06:40:11.198Z,72.40
2023-02-08T06:43:17.216Z,71.90
2023-02-08T06:46:20.304Z,71.90
2023-02-08T06:49:23.384Z,71.80
2023-02-08T06:52:26.565Z,71.40
2023-02-08T06:55:29.603Z,71.80
2023-02-08T06:58:33.988Z,71.90
2023-02-08T07:01:37.451Z,72.00
2023-02-08T07:04:40.606Z,72.00
2023-02-08T07:07:43.804Z,72.10
2023-02-08T07:10:49.182Z,72.20
2023-02-08T07:13:54.569Z,72.30
2023-02-08T07:16:57.863Z,72.60
2023-02-08T07:20:01.149Z,72.20
2023-02-08T07:23:04.259Z,71.80
2023-02-08T07:26:11.904Z,72.20
2023-02-08T07:29:16.938Z,72.20
2023-02-08T07:32:19.992Z,72.20
2023-02-08T07:35:23.007Z,71.70
2023-02-08T07:38:26.054Z,72.10
2023-02-08T07:41:29.065Z,72.30
2023-02-08T07:44:33.634Z,73.40
2023-02-08T07:47:36.680Z,72.70
2023-02-08T07:50:40.028Z,72.80
2023-02-08T07:53:43.318Z,72.90
2023-02-08T07:56:46.364Z,73.00
2023-02-08T07:59:52.032Z,73.00
2023-02-08T08:02:56.854Z,73.50
2023-02-08T08:06:00.637Z,73.70
2023-02-08T08:09:05.687Z,73.00
2023-02-08T08:12:08.890Z,73.10
2023-02-08T08:15:13.337Z,72.90
2023-02-08T08:18:16.868Z,73.00
2023-02-08T08:21:20.030Z,74.00
2023-02-08T08:24:23.067Z,73.10
2023-02-08T08:27:26.081Z,73.00
2023-02-08T08:30:30.585Z,73.50
2023-02-08T08:33:33.563Z,72.90
2023-02-08T08:36:36.798Z,72.70
2023-02-08T08:39:39.855Z,72.50
2023-02-08T08:42:43.127Z,73.50
2023-02-08T08:45:48.068Z,72.60
2023-02-08T08:48:52.620Z,72.40
2023-02-08T08:51:56.619Z,72.50
2023-02-08T08:55:05.196Z,72.20
2023-02-08T08:58:08.302Z,72.10
2023-02-08T09:01:13.965Z,71.90
2023-02-08T09:04:17.188Z,71.60
2023-02-08T09:07:20.257Z,71.40
2023-02-08T09:10:27.928Z,71.20
2023-02-08T09:13:33.397Z,71.60
2023-02-08T09:16:38.138Z,71.40
2023-02-08T09:19:42.467Z,70.40
2023-02-08T09:22:45.559Z,70.70
2023-02-08T09:25:50.119Z,70.10
2023-02-08T09:28:54.330Z,70.20
2023-02-08T09:31:58.718Z,69.30
2023-02-08T09:35:02.249Z,68.80
2023-02-08T09:38:05.771Z,68.90
2023-02-08T09:41:30.736Z,69.00
2023-02-08T09:44:47.831Z,67.80
2023-02-08T09:48:00.612Z,68.90
2023-02-08T09:51:12.061Z,68.20
2023-02-08T09:54:23.575Z,67.40
2023-02-08T09:57:32.738Z,67.70
2023-02-08T10:00:42.557Z,68.70
2023-02-08T10:03:50.458Z,68.30
2023-02-08T10:06:53.649Z,67.90
2023-02-08T10:10:01.092Z,67.30
2023-02-08T10:13:21.456Z,67.30
2023-02-08T10:16:51.344Z,65.90
2023-02-08T10:20:10.130Z,65.80
2023-02-08T10:23:33.760Z,66.40
2023-02-08T10:26:48.246Z,65.90
2023-02-08T10:30:27.518Z,66.10
2023-02-08T10:33:42.610Z,64.30
2023-02-08T10:36:47.687Z,65.40
2023-02-08T10:39:51.644Z,64.90
2023-02-08T10:43:19.682Z,65.10
2023-02-08T10:46:42.926Z,63.50
2023-02-08T10:49:58.280Z,63.00
2023-02-08T10:53:02.897Z,63.60
2023-02-08T10:56:07.270Z,64.00
2023-02-08T10:59:20.019Z,62.90
2023-02-08T11:02:26.777Z,61.70
2023-02-08T11:05:40.502Z,62.50
2023-02-08T11:08:58.789Z,61.30
2023-02-08T11:12:03.399Z,60.10
2023-02-08T11:15:07.298Z,61.10
2023-02-08T11:18:25.571Z,61.00
2023-02-08T11:21:33.568Z,60.20
2023-02-08T11:24:43.138Z,61.10
2023-02-08T11:27:50.449Z,60.90
2023-02-08T11:31:00.335Z,60.30
2023-02-08T11:34:06.606Z,60.20
2023-02-08T11:37:17.963Z,59.90
2023-02-08T11:40:26.412Z,59.50
2023-02-08T11:43:33.170Z,59.50
2023-02-08T11:46:40.372Z,59.30
2023-02-08T11:49:51.959Z,58.80
2023-02-08T11:53:00.190Z,58.80
2023-02-08T11:56:15.386Z,58.10
2023-02-08T11:59:23.682Z,58.10
2023-02-08T12:02:42.044Z,58.10
2023-02-08T12:05:57.611Z,56.30
2023-02-08T12:09:15.423Z,58.20
2023-02-08T12:12:36.356Z,56.20
2023-02-08T12:16:01.480Z,56.40
2023-02-08T12:19:45.802Z,56.90
2023-02-08T12:23:03.456Z,56.60
2023-02-08T12:26:18.831Z,54.50
2023-02-08T12:29:47.677Z,58.00
2023-02-08T12:33:22.930Z,56.10
2023-02-08T12:36:45.833Z,56.00
2023-02-08T12:40:35.515Z,55.50
2023-02-08T12:43:58.362Z,56.20
2023-02-08T12:47:25.968Z,54.10
2023-02-08T12:50:40.062Z,55.60
2023-02-08T12:53:48.583Z,56.10
2023-02-08T12:57:02.086Z,55.90
2023-02-08T13:00:16.613Z,56.00
2023-02-08T13:03:33.822Z,56.00
2023-02-08T13:06:43.103Z,55.60
2023-02-08T13:09:55.890Z,55.30
2023-02-08T13:13:08.217Z,55.10
2023-02-08T13:16:20.992Z,55.20
2023-02-08T13:19:32.661Z,56.40
2023-02-08T13:22:41.765Z,55.00
2023-02-08T13:25:45.871Z,54.90
2023-02-08T13:28:51.332Z,54.10
2023-02-08T13:32:00.416Z,50.40
2023-02-08T13:35:15.986Z,53.80
2023-02-08T13:38:28.187Z,53.70
2023-02-08T13:41:34.149Z,54.30
2023-02-08T13:44:41.155Z,52.20
2023-02-08T13:47:48.760Z,52.00
2023-02-08T13:50:56.025Z,52.70
2023-02-08T13:54:13.983Z,52.40
2023-02-08T13:57:52.599Z,50.60
2023-02-08T14:01:18.934Z,49.80
2023-02-08T14:04:37.665Z,51.40
2023-02-08T14:07:46.005Z,51.90
2023-02-08T14:11:06.182Z,51.80
2023-02-08T14:14:21.172Z,52.90
2023-02-08T14:17:30.019Z,51.30
2023-02-08T14:20:39.921Z,52.80
2023-02-08T14:23:44.495Z,53.10
2023-02-08T14:26:47.860Z,53.30
2023-02-08T14:30:01.772Z,53.00
2023-02-08T14:33:19.571Z,51.60
2023-02-08T14:36:31.728Z,51.90
2023-02-08T14:39:37.413Z,52.40
2023-02-08T14:42:58.910Z,52.80
2023-02-08T14:46:43.445Z,51.00
2023-02-08T14:49:46.997Z,50.60
2023-02-08T14:53:00.226Z,52.60
2023-02-08T14:56:17.302Z,51.60
2023-02-08T14:59:27.543Z,51.70
2023-02-08T15:02:31.981Z,53.20
2023-02-08T15:05:45.379Z,52.20
2023-02-08T15:08:53.484Z,52.20
2023-02-08T15:12:04.969Z,51.40
2023-02-08T15:15:24.766Z,52.50
2023-02-08T15:18:33.577Z,52.20
2023-02-08T15:21:38.791Z,52.90
2023-02-08T15:24:52.495Z,52.40
2023-02-08T15:27:59.761Z,52.20
2023-02-08T15:31:09.193Z,51.50
2023-02-08T15:34:13.141Z,53.00
2023-02-08T15:37:19.606Z,52.70
2023-02-08T15:40:27.590Z,52.70
2023-02-08T15:43:32.395Z,53.10
2023-02-08T15:46:36.811Z,53.20
2023-02-08T15:49:45.179Z,53.40
2023-02-08T15:52:49.484Z,54.10
2023-02-08T15:55:57.691Z,53.70
2023-02-08T15:59:05.375Z,53.80
2023-02-08T16:02:24.757Z,54.10
2023-02-08T16:05:31.611Z,54.30
2023-02-08T16:08:37.588Z,55.70
2023-02-08T16:11:40.658Z,55.00
2023-02-08T16:14:52.392Z,55.30
2023-02-08T16:17:55.963Z,55.40
2023-02-08T16:21:00.178Z,55.80
2023-02-08T16:24:20.218Z,56.10
2023-02-08T16:27:28.541Z,56.60
2023-02-08T16:30:33.449Z,57.20
2023-02-08T16:33:49.245Z,57.50
2023-02-08T16:36:54.489Z,57.90
2023-02-08T16:40:02.535Z,58.00
2023-02-08T16:43:29.743Z,58.20
2023-02-08T16:46:52.749Z,58.70
2023-02-08T16:50:02.830Z,58.60
2023-02-08T16:53:28.167Z,57.60
2023-02-08T16:56:50.519Z,58.70
2023-02-08T16:59:56.733Z,58.80
2023-02-08T17:03:06.784Z,60.40
2023-02-08T17:06:53.998Z,59.60
2023-02-08T17:10:47.811Z,60.30
2023-02-08T17:14:11.118Z,61.00
2023-02-08T17:17:57.252Z,60.80
2023-02-08T17:21:10.000Z,62.60
2023-02-08T17:24:13.027Z,61.10
2023-02-08T17:27:16.952Z,61.70
2023-02-08T17:30:25.391Z,61.80
2023-02-08T17:33:29.347Z,62.60
2023-02-08T17:36:37.135Z,61.80
2023-02-08T17:39:40.268Z,63.00
2023-02-08T17:42:43.436Z,62.60
2023-02-08T17:45:47.066Z,62.90
2023-02-08T17:48:50.461Z,63.30
2023-02-08T17:51:55.072Z,63.80
2023-02-08T17:54:58.149Z,63.50
2023-02-08T17:58:01.239Z,63.90
2023-02-08T18:01:04.800Z,64.00
2023-02-08T18:04:11.067Z,64.70
2023-02-08T18:07:15.543Z,63.00
2023-02-08T18:10:19.005Z,64.00
2023-02-08T18:13:22.061Z,63.90
2023-02-08T18:16:27.595Z,64.10
2023-02-08T18:19:30.756Z,63.40
2023-02-08T18:22:37.997Z,64.30
2023-02-08T18:25:42.635Z,64.40
2023-02-08T18:28:46.533Z,64.40
2023-02-08T18:31:49.869Z,65.80
2023-02-08T18:34:52.983Z,64.60
2023-02-08T18:37:57.461Z,63.90
2023-02-08T18:41:01.647Z,64.20
2023-02-08T18:44:04.632Z,64.80
2023-02-08T18:47:09.466Z,65.20
2023-02-08T18:50:12.895Z,64.20
2023-02-08T18:53:17.296Z,63.20
2023-02-08T18:56:23.926Z,64.20
2023-02-08T19:05:38.535Z,63.90
2023-02-08T19:08:44.943Z,64.20
2023-02-08T19:17:55.916Z,64.40
2023-02-08T19:21:04.981Z,64.40
2023-02-08T19:24:09.408Z,64.60
2023-02-08T19:27:12.446Z,64.60
2023-02-08T19:30:17.153Z,65.40
2023-02-08T19:33:20.175Z,64.40
2023-02-08T19:36:28.248Z,65.00
2023-02-08T19:39:32.951Z,65.00
2023-02-08T19:42:36.783Z,65.00
2023-02-08T19:45:39.830Z,65.40
2023-02-08T19:48:43.770Z,65.10
2023-02-08T19:51:46.976Z,65.10
2023-02-08T19:54:52.787Z,65.00
2023-02-08T19:57:55.792Z,65.30
2023-02-08T20:00:59.692Z,64.90
2023-02-08T20:04:04.044Z,64.80
2023-02-08T20:07:08.778Z,64.60
2023-02-08T20:10:13.723Z,64.60
2023-02-08T20:13:17.545Z,64.70
2023-02-08T20:16:22.569Z,66.10
2023-02-08T20:19:26.906Z,64.80
2023-02-08T20:22:31.592Z,64.80
2023-02-08T20:25:36.282Z,64.90
2023-02-08T20:28:41.973Z,65.80
2023-02-08T20:31:48.822Z,64.90
2023-02-08T20:34:59.523Z,64.90
2023-02-08T20:38:03.203Z,64.80
2023-02-08T20:41:10.625Z,64.80
2023-02-08T20:44:16.752Z,64.90
2023-02-08T20:47:23.196Z,64.80
2023-02-08T20:50:27.847Z,64.90
2023-02-08T20:53:30.923Z,64.60
2023-02-08T20:56:38.032Z,64.60
2023-02-08T20:59:41.424Z,64.60
2023-02-08T21:02:44.475Z,64.50
2023-02-08T21:05:47.542Z,64.50
2023-02-08T21:08:52.024Z,64.40
2023-02-08T21:11:56.468Z,64.50
2023-02-08T21:14:59.568Z,64.40
2023-02-08T21:18:02.679Z,64.50
2023-02-08T21:21:07.532Z,64.70
2023-02-08T21:24:11.171Z,65.20
2023-02-08T21:27:15.609Z,64.50
2023-02-08T21:30:18.878Z,64.60
2023-02-08T21:33:21.913Z,64.60
2023-02-08T21:36:25.765Z,65.20
2023-02-08T21:39:29.354Z,64.60
2023-02-08T21:42:34.292Z,64.80
2023-02-08T21:45:37.426Z,64.50
2023-02-08T21:48:57.915Z,64.50
2023-02-08T21:52:18.820Z,65.00
2023-02-08T21:55:21.887Z,64.60
2023-02-08T21:58:26.535Z,65.20
2023-02-08T22:01:29.704Z,64.80
2023-02-08T22:04:33.932Z,64.80
2023-02-08T22:07:47.694Z,64.90
2023-02-08T22:11:08.821Z,65.10
2023-02-08T22:14:17.398Z,65.10
2023-02-08T22:17:20.765Z,64.90
2023-02-08T22:20:25.568Z,65.00
2023-02-08T22:23:29.909Z,65.10
2023-02-08T22:26:40.444Z,65.70
2023-02-08T22:29:45.925Z,65.30
2023-02-08T22:32:49.803Z,64.40
2023-02-08T22:35:53.916Z,65.30
2023-02-08T22:38:57.319Z,64.90
2023-02-08T22:42:00.412Z,65.50
2023-02-08T22:45:05.444Z,65.10
2023-02-08T22:48:08.600Z,65.20
2023-02-08T22:51:16.992Z,65.30
2023-02-08T22:54:20.218Z,66.10
2023-02-08T22:57:23.548Z,65.50
2023-02-08T23:00:28.225Z,65.60
2023-02-08T23:03:31.211Z,65.60
2023-02-08T23:06:35.553Z,65.10
2023-02-08T23:09:39.596Z,65.70
2023-02-08T23:12:42.889Z,65.80
2023-02-08T23:15:48.749Z,65.20
2023-02-08T23:18:52.488Z,65.80
2023-02-08T23:21:59.564Z,65.80
2023-02-08T23:25:02.734Z,65.60
2023-02-08T23:28:07.521Z,65.80
2023-02-08T23:31:15.041Z,65.90
2023-02-08T23:34:18.700Z,66.40
2023-02-08T23:37:22.088Z,65.90
2023-02-08T23:40:25.316Z,66.10
2023-02-08T23:43:29.250Z,66.00
2023-02-08T23:46:34.180Z,65.90
2023-02-08T23:49:37.109Z,65.90
2023-02-08T23:52:40.078Z,65.70
2023-02-08T23:55:43.126Z,66.80
2023-02-08T23:58:48.385Z,66.10
